EGKK/LGW METAR and TAF weather

Enter ICAO airport designator
Station Type Date Time Source
EGKK METAR 2022/07/03 15:20 UTC NOAA

EGKK 031520Z 22012KT 180V260 9999 FEW036 22/11 Q1020


Station Type Date Time Source
EGKK Decoded METAR 2022/07/03 15:20 UTC NOAA

London / Gatwick Airport, United Kingdom (EGKK) 51-09N 000-11W 0M
Jul 03, 2022 - 11:20 AM EDT / 2022.07.03 1520 UTC
Wind: from the SW (220 degrees) at 14 MPH (12 KT) (direction variable):0
Visibility: greater than 7 mile(s):0
Sky conditions: mostly clear
Temperature: 71 F (22 C)
Dew Point: 51 F (11 C)
Relative Humidity: 49%
Pressure (altimeter): 30.12 in. Hg (1020 hPa)
ob: EGKK 031520Z 22012KT 180V260 9999 FEW036 22/11 Q1020
cycle: 15

Station Type Date Time Source
EGKK TAF 2022/07/03 12:09 UTC NOAA

TAF EGKK 031052Z 0312/0418 25006KT 9999 SCT040 PROB30
TEMPO 0312/0318 8000 SHRA

Example: see airport list